Time;durP1;ratioP1;P1;durP2;ratioP2;P2;SDS_P1;SDS_P2;PMS_P1;PMS_P2;Temp;Humidity;BMP_temperature;BMP_pressure;BME280_temperature;BME280_humidity;BME280_pressure;Samples;Min_cycle;Max_cycle;Signal;HPM_P1;HPM_P2
2022/03/03 00:00:45;;;;;;;6.13;4.83;;;;;;;2.15;50.31;102024.28;4942127;28;96941;-46
2022/03/03 00:03:10;;;;;;;12.10;4.90;;;;;;;2.14;50.20;102028.94;4941132;28;108962;-47
2022/03/03 00:05:36;;;;;;;8.00;5.00;;;;;;;2.07;50.39;102015.47;4941715;28;114290;-47
2022/03/03 00:08:01;;;;;;;6.77;4.73;;;;;;;2.11;50.42;102020.84;4939822;28;97273;-47
2022/03/03 00:10:27;;;;;;;8.37;4.90;;;;;;;2.16;50.52;102015.00;4943425;28;96816;-47
2022/03/03 00:12:52;;;;;;;9.00;5.93;;;;;;;2.16;50.26;102020.44;4941739;28;98522;-47
2022/03/03 00:15:18;;;;;;;5.60;4.83;;;;;;;2.09;50.59;102020.47;4939441;28;125136;-47
2022/03/03 00:17:43;;;;;;;7.50;4.90;;;;;;;2.07;50.67;102018.16;4941440;28;96889;-47
2022/03/03 00:20:09;;;;;;;5.70;4.30;;;;;;;2.11;50.60;102018.91;4937923;28;102585;-46
2022/03/03 00:22:34;;;;;;;7.80;5.27;;;;;;;2.14;50.78;102020.81;4942661;28;97343;-47
2022/03/03 00:25:00;;;;;;;9.33;5.43;;;;;;;2.14;50.50;102014.63;4944851;28;97583;-46
2022/03/03 00:27:25;;;;;;;7.83;5.17;;;;;;;2.14;50.49;102006.47;4940193;28;97103;-47
2022/03/03 00:29:51;;;;;;;6.70;5.00;;;;;;;2.16;50.60;101998.72;4938606;28;99776;-47
2022/03/03 00:32:17;;;;;;;8.90;4.77;;;;;;;2.15;50.63;102008.78;4941383;28;100892;-47
2022/03/03 00:34:42;;;;;;;8.40;4.57;;;;;;;2.11;50.61;102001.84;4938275;28;98293;-47
2022/03/03 00:37:07;;;;;;;7.60;4.87;;;;;;;2.11;50.72;101999.13;4942512;28;96936;-47
2022/03/03 00:39:33;;;;;;;7.63;4.83;;;;;;;2.12;50.94;102004.16;4929695;28;97066;-47
2022/03/03 00:41:58;;;;;;;7.20;4.43;;;;;;;2.16;50.76;101998.72;4941139;28;97383;-47
2022/03/03 00:44:23;;;;;;;7.20;4.90;;;;;;;2.18;50.67;101999.06;4941587;28;96791;-47
2022/03/03 00:46:48;;;;;;;6.47;4.57;;;;;;;2.19;50.85;101995.16;4940558;28;117381;-47
2022/03/03 00:49:14;;;;;;;5.90;5.00;;;;;;;2.21;51.00;102003.69;4932705;28;98491;-47
2022/03/03 00:51:39;;;;;;;6.27;5.00;;;;;;;2.20;50.71;102000.22;4942686;28;122174;-47
2022/03/03 00:54:04;;;;;;;5.90;4.47;;;;;;;2.21;50.83;102003.69;4944450;28;96949;-47
2022/03/03 00:56:30;;;;;;;7.07;4.90;;;;;;;2.21;50.75;101999.03;4940548;28;97178;-47
2022/03/03 00:58:55;;;;;;;7.30;5.27;;;;;;;2.16;51.06;102004.13;4941515;28;117187;-47
2022/03/03 01:01:21;;;;;;;9.80;5.50;;;;;;;2.13;50.92;101997.56;4942000;28;97290;-47
2022/03/03 01:03:46;;;;;;;9.57;5.57;;;;;;;2.12;51.12;102004.16;4942549;28;97679;-47
2022/03/03 01:06:12;;;;;;;7.10;4.73;;;;;;;2.05;51.14;102003.44;4938809;28;116650;-47
2022/03/03 01:08:37;;;;;;;6.33;4.90;;;;;;;2.02;51.06;101993.38;4940707;28;97975;-46
2022/03/03 01:11:04;;;;;;;9.67;5.37;;;;;;;2.01;51.37;101984.47;4946924;28;96786;-47
2022/03/03 01:13:29;;;;;;;6.57;5.20;;;;;;;2.02;51.34;101988.72;4938581;28;96692;-47
2022/03/03 01:15:55;;;;;;;8.73;5.37;;;;;;;2.00;51.24;101996.50;4944319;28;96917;-46
2022/03/03 01:18:21;;;;;;;8.00;5.40;;;;;;;1.91;51.36;101989.97;4941919;28;97010;-46
2022/03/03 01:20:46;;;;;;;10.43;6.37;;;;;;;1.81;51.44;101986.19;4941456;28;97626;-47
2022/03/03 01:23:12;;;;;;;11.93;6.60;;;;;;;1.77;51.88;101992.81;4942702;28;99722;-46
2022/03/03 01:25:37;;;;;;;10.83;6.37;;;;;;;1.76;51.78;101985.84;4941038;28;96870;-47
2022/03/03 01:28:03;;;;;;;9.77;5.97;;;;;;;1.73;51.59;101992.84;4939350;28;97039;-46
2022/03/03 01:30:29;;;;;;;9.17;5.77;;;;;;;1.72;51.82;101990.53;4938536;28;97434;-47
2022/03/03 01:32:54;;;;;;;11.13;6.40;;;;;;;1.72;51.61;101983.16;4941646;28;97266;-46
2022/03/03 01:35:20;;;;;;;10.17;7.47;;;;;;;1.76;52.04;101972.28;4938856;28;98077;-47
2022/03/03 01:37:45;;;;;;;11.20;6.87;;;;;;;1.80;51.83;101978.44;4942202;28;111671;-47
2022/03/03 01:40:11;;;;;;;11.93;6.97;;;;;;;1.83;51.58;101966.81;4942808;28;119548;-48
2022/03/03 01:42:36;;;;;;;8.07;6.03;;;;;;;1.86;51.55;101963.28;4942903;28;97329;-47
2022/03/03 01:45:02;;;;;;;9.07;6.23;;;;;;;1.89;51.52;101963.25;4943054;28;97620;-47
2022/03/03 01:47:28;;;;;;;10.37;6.47;;;;;;;1.90;51.70;101962.06;4940864;28;96868;-47
2022/03/03 01:49:55;;;;;;;9.50;6.03;;;;;;;1.90;51.69;101961.31;4936680;28;98375;-47
2022/03/03 01:52:21;;;;;;;8.93;6.00;;;;;;;1.82;51.79;101971.44;4940868;28;97263;-46
2022/03/03 01:54:47;;;;;;;9.50;6.40;;;;;;;1.64;52.03;101984.38;4939735;28;97934;-46
2022/03/03 01:57:17;;;;;;;12.30;6.67;;;;;;;1.52;52.20;101990.28;4941277;28;96973;-46
2022/03/03 01:59:43;;;;;;;13.30;7.70;;;;;;;1.46;52.32;101989.16;4938324;28;98883;-47
2022/03/03 02:02:10;;;;;;;13.17;7.43;;;;;;;1.47;52.34;101977.13;4935862;28;97322;-46
2022/03/03 02:04:36;;;;;;;9.60;6.50;;;;;;;1.49;52.50;101975.56;4940726;28;97183;-46
2022/03/03 02:07:02;;;;;;;12.57;7.13;;;;;;;1.48;52.25;101971.31;4935911;28;96904;-47
2022/03/03 02:09:27;;;;;;;13.33;7.50;;;;;;;1.50;52.32;101971.69;4939265;28;97500;-46
2022/03/03 02:11:53;;;;;;;12.57;6.90;;;;;;;1.53;52.13;101979.03;4943323;28;96891;-47
2022/03/03 02:14:18;;;;;;;11.10;7.30;;;;;;;1.58;52.29;101985.19;4939299;28;97098;-46
2022/03/03 02:16:44;;;;;;;13.10;7.00;;;;;;;1.60;52.38;101963.88;4939120;28;98038;-46
2022/03/03 02:19:20;;;;;;;11.87;7.20;;;;;;;1.63;52.70;101957.66;4938303;28;97389;-47
2022/03/03 02:21:47;;;;;;;10.97;6.53;;;;;;;1.64;52.17;101970.06;4938661;28;101789;-46
2022/03/03 02:24:13;;;;;;;11.93;6.73;;;;;;;1.59;51.87;101971.25;4937013;28;97057;-46
2022/03/03 02:26:39;;;;;;;10.37;6.90;;;;;;;1.51;52.03;101969.72;4940321;28;96866;-47
2022/03/03 02:29:05;;;;;;;10.60;6.30;;;;;;;1.48;52.36;101965.91;4935946;28;98754;-46
2022/03/03 02:31:30;;;;;;;12.80;7.43;;;;;;;1.49;52.18;101962.00;4939275;28;98593;-47
2022/03/03 02:33:57;;;;;;;11.60;7.47;;;;;;;1.52;52.33;101966.66;4938394;28;117085;-47
2022/03/03 02:36:29;;;;;;;10.93;7.03;;;;;;;1.55;52.49;101964.31;4940408;28;96835;-47
2022/03/03 02:38:57;;;;;;;12.00;7.00;;;;;;;1.49;52.27;101955.81;4940652;28;101876;-46
2022/03/03 02:41:24;;;;;;;13.00;7.67;;;;;;;1.45;52.41;101971.31;4939408;28;99032;-47
2022/03/03 02:43:50;;;;;;;12.93;7.90;;;;;;;1.44;52.17;101967.84;4940215;28;97493;-46
2022/03/03 02:46:15;;;;;;;15.20;7.10;;;;;;;1.36;52.57;101968.28;4937362;28;97014;-46
2022/03/03 02:48:41;;;;;;;12.23;7.70;;;;;;;1.30;52.45;101957.09;4943396;28;97041;-46
2022/03/03 02:51:08;;;;;;;12.60;7.57;;;;;;;1.30;52.63;101959.03;4938514;28;97635;-46
2022/03/03 02:53:33;;;;;;;15.63;7.17;;;;;;;1.27;52.42;101952.47;4943626;28;97023;-46
2022/03/03 02:55:59;;;;;;;15.93;7.87;;;;;;;1.24;52.85;101950.56;4941435;28;97206;-46
2022/03/03 02:58:24;;;;;;;19.70;8.30;;;;;;;1.17;52.48;101956.00;4941115;28;126467;-47
2022/03/03 03:00:50;;;;;;;12.90;7.10;;;;;;;1.11;52.77;101968.44;4940528;28;124302;-47
2022/03/03 03:03:17;;;;;;;15.40;8.27;;;;;;;1.06;53.07;101952.59;4944828;28;97193;-46
2022/03/03 03:05:43;;;;;;;13.50;8.27;;;;;;;1.04;52.83;101956.84;4944235;28;98615;-46
2022/03/03 03:08:09;;;;;;;12.60;7.30;;;;;;;1.02;53.10;101953.75;4944341;28;97666;-47
2022/03/03 03:10:35;;;;;;;14.13;8.00;;;;;;;1.00;53.00;101956.09;4942594;28;96945;-46
2022/03/03 03:13:00;;;;;;;15.87;8.30;;;;;;;0.98;53.10;101950.31;4941211;28;97053;-46
2022/03/03 03:15:26;;;;;;;15.70;8.10;;;;;;;0.99;53.10;101951.84;4942590;28;97675;-46
2022/03/03 03:17:51;;;;;;;13.73;7.67;;;;;;;1.03;52.91;101955.28;4942109;28;97295;-46
2022/03/03 03:20:17;;;;;;;13.73;7.80;;;;;;;1.05;52.93;101947.56;4943506;28;97420;-46
2022/03/03 03:22:42;;;;;;;13.83;7.60;;;;;;;1.09;53.05;101945.63;4942753;28;97485;-46
2022/03/03 03:25:10;;;;;;;15.30;7.60;;;;;;;1.12;53.09;101942.88;4940970;28;114878;-46
2022/03/03 03:27:37;;;;;;;14.20;7.63;;;;;;;1.15;52.97;101941.31;4941985;28;100773;-47
2022/03/03 03:30:04;;;;;;;13.70;8.00;;;;;;;1.18;53.22;101935.09;4939397;28;97507;-47
2022/03/03 03:32:30;;;;;;;13.80;8.37;;;;;;;1.21;52.98;101934.31;4943924;28;96981;-46
2022/03/03 03:34:55;;;;;;;11.93;7.40;;;;;;;1.24;52.87;101934.28;4941762;28;96902;-46
2022/03/03 03:37:20;;;;;;;12.07;7.30;;;;;;;1.26;52.75;101937.38;4943543;28;97293;-47
2022/03/03 03:39:46;;;;;;;13.33;8.30;;;;;;;1.26;53.00;101926.53;4940968;28;117498;-46
2022/03/03 03:42:11;;;;;;;12.47;7.23;;;;;;;1.29;52.93;101931.16;4944280;28;97118;-47
2022/03/03 03:44:38;;;;;;;15.10;8.40;;;;;;;1.28;52.84;101942.41;4940453;28;96883;-47
2022/03/03 03:47:03;;;;;;;14.30;8.27;;;;;;;1.25;53.02;101948.59;4938903;28;97487;-47
2022/03/03 03:49:29;;;;;;;12.80;7.40;;;;;;;1.16;52.80;101940.91;4941338;28;98287;-47
2022/03/03 03:51:54;;;;;;;11.37;7.70;;;;;;;1.11;52.77;101941.34;4940600;28;99513;-46
2022/03/03 03:54:19;;;;;;;16.30;8.57;;;;;;;1.10;53.09;101937.06;4939984;28;115584;-47
2022/03/03 03:56:45;;;;;;;17.40;8.83;;;;;;;1.10;52.94;101931.66;4938931;28;97188;-46
2022/03/03 03:59:11;;;;;;;16.30;8.70;;;;;;;1.10;53.19;101933.59;4940929;28;97228;-47
2022/03/03 04:01:36;;;;;;;18.50;8.30;;;;;;;1.07;52.95;101929.72;4940670;28;97284;-46
2022/03/03 04:04:02;;;;;;;16.03;8.13;;;;;;;1.05;53.05;101925.91;4939090;28;98519;-46
2022/03/03 04:06:27;;;;;;;14.80;7.90;;;;;;;1.04;53.35;101927.81;4939901;28;99669;-46
2022/03/03 04:08:53;;;;;;;14.83;8.13;;;;;;;1.04;52.91;101927.81;4943863;28;96821;-46
2022/03/03 04:11:18;;;;;;;12.80;8.00;;;;;;;0.99;52.86;101928.22;4939829;28;97183;-48
2022/03/03 04:13:44;;;;;;;14.03;8.00;;;;;;;0.97;53.10;101933.28;4944298;28;97009;-46
2022/03/03 04:16:09;;;;;;;18.13;8.83;;;;;;;0.97;53.19;101952.25;4940849;28;97552;-46
2022/03/03 04:18:34;;;;;;;17.40;9.10;;;;;;;0.96;53.25;101931.72;4940982;28;125202;-46
2022/03/03 04:21:00;;;;;;;18.53;9.27;;;;;;;0.96;53.21;101931.72;4936907;28;118097;-46
2022/03/03 04:23:25;;;;;;;15.80;7.93;;;;;;;0.96;53.13;101929.00;4939461;28;115755;-46
2022/03/03 04:25:50;;;;;;;14.70;8.30;;;;;;;0.95;53.21;101929.41;4940972;28;126811;-47
2022/03/03 04:28:16;;;;;;;16.60;8.70;;;;;;;0.92;53.18;101933.69;4939669;28;98461;-46
2022/03/03 04:30:41;;;;;;;14.93;8.43;;;;;;;0.90;53.00;101922.47;4939112;28;97312;-46
2022/03/03 04:33:06;;;;;;;14.83;8.10;;;;;;;0.89;53.18;101925.56;4943069;28;97540;-46
2022/03/03 04:35:32;;;;;;;17.97;8.77;;;;;;;0.89;53.33;101923.66;4938955;28;129422;-46
2022/03/03 04:37:57;;;;;;;14.07;8.13;;;;;;;0.89;53.62;101926.34;4943778;28;96789;-46
2022/03/03 04:40:23;;;;;;;20.40;8.43;;;;;;;0.85;53.11;101933.72;4940779;28;97718;-47
2022/03/03 04:42:49;;;;;;;16.83;9.20;;;;;;;0.77;53.23;101932.19;4941642;28;97074;-47
2022/03/03 04:45:15;;;;;;;16.13;8.87;;;;;;;0.73;53.28;101937.66;4935349;28;97199;-47
2022/03/03 04:47:41;;;;;;;13.10;7.67;;;;;;;0.71;53.77;101933.78;4942176;28;97257;-46
2022/03/03 04:50:07;;;;;;;13.23;7.80;;;;;;;0.66;53.54;101921.41;4942749;28;97512;-46
2022/03/03 04:52:33;;;;;;;15.23;8.30;;;;;;;0.62;53.72;101925.31;4938139;28;97200;-47
2022/03/03 04:54:58;;;;;;;18.53;9.57;;;;;;;0.59;53.84;101932.28;4942239;28;97301;-47
2022/03/03 04:57:24;;;;;;;17.40;9.13;;;;;;;0.53;53.82;101925.72;4943417;28;98766;-46
2022/03/03 04:59:49;;;;;;;18.17;9.13;;;;;;;0.47;54.24;101931.94;4940496;28;96918;-47
2022/03/03 05:02:15;;;;;;;19.90;10.07;;;;;;;0.43;54.15;101931.19;4938007;28;97121;-46
2022/03/03 05:04:40;;;;;;;16.50;8.63;;;;;;;0.43;54.17;101920.34;4942340;28;126636;-46
2022/03/03 05:07:05;;;;;;;16.40;8.40;;;;;;;0.47;54.32;101919.16;4940342;28;126631;-46
2022/03/03 05:09:32;;;;;;;21.70;9.80;;;;;;;0.51;54.02;101928.06;4939108;28;98319;-46
2022/03/03 05:11:59;;;;;;;20.67;9.70;;;;;;;0.53;54.17;101935.78;4941110;28;96983;-46
2022/03/03 05:14:24;;;;;;;20.23;9.93;;;;;;;0.53;54.07;101939.25;4938741;28;97470;-47
2022/03/03 05:16:49;;;;;;;19.23;9.67;;;;;;;0.55;53.96;101928.03;4941778;28;97786;-46
2022/03/03 05:19:15;;;;;;;22.23;9.30;;;;;;;0.58;53.99;101924.53;4935985;28;117120;-47
2022/03/03 05:21:40;;;;;;;18.50;9.10;;;;;;;0.61;54.34;101929.19;4938464;28;97500;-47
2022/03/03 05:24:05;;;;;;;21.33;9.70;;;;;;;0.62;54.26;101922.59;4939566;28;120207;-47
2022/03/03 05:26:31;;;;;;;18.03;9.83;;;;;;;0.63;53.97;101937.69;4938314;28;97119;-46
2022/03/03 05:28:56;;;;;;;20.20;9.30;;;;;;;0.55;54.06;101933.44;4940159;28;97827;-47
2022/03/03 05:31:22;;;;;;;17.33;9.30;;;;;;;0.55;54.15;101942.34;4938665;28;97020;-46
2022/03/03 05:33:47;;;;;;;21.47;10.10;;;;;;;0.56;54.37;101932.28;4939432;28;97165;-47
2022/03/03 05:36:13;;;;;;;18.00;9.53;;;;;;;0.55;54.11;101920.69;4941136;28;96731;-46
2022/03/03 05:38:39;;;;;;;15.80;8.57;;;;;;;0.56;53.91;101922.25;4942868;28;97837;-47
2022/03/03 05:41:06;;;;;;;19.73;9.57;;;;;;;0.56;53.91;101927.66;4939454;28;96868;-48
2022/03/03 05:43:32;;;;;;;17.67;9.27;;;;;;;0.58;54.10;101916.44;4939376;28;100505;-47
2022/03/03 05:45:58;;;;;;;21.70;10.33;;;;;;;0.60;54.13;101905.97;4942456;28;97176;-47
2022/03/03 05:48:25;;;;;;;16.23;8.43;;;;;;;0.61;54.09;101916.41;4941468;28;97096;-48
2022/03/03 05:50:52;;;;;;;17.97;8.60;;;;;;;0.63;54.15;101916.78;4938014;28;97362;-47
2022/03/03 05:53:18;;;;;;;17.00;9.80;;;;;;;0.66;54.19;101926.06;4940651;28;97294;-48
2022/03/03 05:55:47;;;;;;;21.00;9.43;;;;;;;0.69;54.11;101925.28;4942035;28;97172;-48
2022/03/03 05:58:18;;;;;;;21.17;9.83;;;;;;;0.69;54.20;101917.94;4942866;28;96870;-46
2022/03/03 06:00:48;;;;;;;18.37;10.20;;;;;;;0.69;54.14;101928.00;4942987;28;96929;-46
2022/03/03 06:03:19;;;;;;;18.30;9.73;;;;;;;0.67;54.00;101922.19;4940019;28;97308;-48
2022/03/03 06:05:51;;;;;;;15.60;8.63;;;;;;;0.65;54.18;101913.69;4941257;28;96770;-47
2022/03/03 06:08:23;;;;;;;22.47;11.57;;;;;;;0.61;53.89;101918.34;4933697;28;96947;-48
2022/03/03 06:10:53;;;;;;;21.70;10.30;;;;;;;0.60;54.22;101909.47;4938708;28;96870;-47
2022/03/03 06:13:25;;;;;;;18.70;10.30;;;;;;;0.62;54.06;101914.47;4940312;28;97567;-47
2022/03/03 06:15:52;;;;;;;23.00;10.50;;;;;;;0.64;54.24;101914.84;4942634;28;96802;-47
2022/03/03 06:18:26;;;;;;;24.00;10.67;;;;;;;0.66;54.21;101917.94;4936868;28;96809;-47
2022/03/03 06:20:52;;;;;;;20.50;10.67;;;;;;;0.64;54.05;101912.13;4942315;28;96955;-47
2022/03/03 06:23:18;;;;;;;21.37;11.17;;;;;;;0.64;54.13;101925.69;4934366;28;97259;-45
2022/03/03 06:25:44;;;;;;;24.80;11.77;;;;;;;0.57;53.70;101923.00;4942128;28;97314;-48
2022/03/03 06:28:10;;;;;;;25.10;11.53;;;;;;;0.54;54.14;101913.75;4942924;28;97315;-47
2022/03/03 06:30:36;;;;;;;22.13;11.27;;;;;;;0.56;54.30;101916.06;4942713;28;96901;-47
2022/03/03 06:33:03;;;;;;;23.40;11.10;;;;;;;0.58;54.35;101919.91;4941621;28;98572;-47
2022/03/03 06:35:29;;;;;;;23.37;10.87;;;;;;;0.55;53.95;101919.91;4939811;28;97176;-47
2022/03/03 06:37:54;;;;;;;24.10;11.13;;;;;;;0.48;54.51;101925.38;4940979;28;97072;-47
2022/03/03 06:40:20;;;;;;;26.63;12.40;;;;;;;0.47;54.55;101921.09;4940660;28;115897;-47
2022/03/03 06:42:45;;;;;;;25.10;12.23;;;;;;;0.49;54.39;101918.78;4943716;28;96889;-47
2022/03/03 06:45:11;;;;;;;25.67;12.60;;;;;;;0.49;54.40;101922.25;4940480;28;97142;-47
2022/03/03 06:47:37;;;;;;;26.10;11.80;;;;;;;0.47;54.46;101923.81;4941073;28;97040;-47
2022/03/03 06:50:02;;;;;;;20.47;10.90;;;;;;;0.52;54.55;101915.28;4942334;28;96821;-47
2022/03/03 06:52:31;;;;;;;27.30;11.90;;;;;;;0.59;54.36;101920.69;4940880;28;97396;-47
2022/03/03 06:54:59;;;;;;;20.63;11.03;;;;;;;0.64;54.42;101912.13;4941610;28;97214;-47
2022/03/03 06:57:25;;;;;;;27.23;13.33;;;;;;;0.67;54.26;101917.56;4938000;28;97071;-46
2022/03/03 06:59:54;;;;;;;23.70;10.50;;;;;;;0.69;54.63;101907.09;4941060;28;97401;-47
2022/03/03 07:02:20;;;;;;;25.40;12.10;;;;;;;0.75;54.29;101910.16;4937555;28;97337;-47
2022/03/03 07:04:48;;;;;;;23.60;11.40;;;;;;;0.80;54.52;101901.63;4943817;28;98499;-46
2022/03/03 07:07:13;;;;;;;26.03;12.87;;;;;;;0.84;54.29;101896.19;4943826;28;97420;-48
2022/03/03 07:09:39;;;;;;;25.50;12.60;;;;;;;0.83;54.43;101890.00;4942828;28;96952;-47
2022/03/03 07:12:05;;;;;;;24.03;11.70;;;;;;;0.94;54.25;101890.72;4943947;28;97677;-47
2022/03/03 07:14:32;;;;;;;25.47;13.10;;;;;;;0.98;54.52;101882.56;4945391;28;96893;-48
2022/03/03 07:17:03;;;;;;;27.73;12.50;;;;;;;1.02;54.33;101878.69;4941219;28;97059;-47
2022/03/03 07:19:53;;;;;;;25.20;13.10;;;;;;;1.08;55.43;101887.16;4946519;28;97356;-46
2022/03/03 07:22:38;;;;;;;25.17;13.10;;;;;;;1.11;55.44;101887.16;4936762;28;100525;-47
2022/03/03 07:25:05;;;;;;;21.73;11.90;;;;;;;1.16;54.52;101892.13;4946186;28;100083;-47
2022/03/03 07:27:30;;;;;;;22.30;11.87;;;;;;;1.24;54.74;101874.66;4944257;28;97138;-48
2022/03/03 07:29:58;;;;;;;25.97;12.70;;;;;;;1.30;54.42;101883.91;4940719;28;96813;-47
2022/03/03 07:32:38;;;;;;;22.60;11.87;;;;;;;1.40;55.01;101876.84;4943012;28;97716;-48
2022/03/03 07:35:12;;;;;;;24.77;11.77;;;;;;;1.44;54.65;101889.22;4930609;28;98264;-48
2022/03/03 07:37:45;;;;;;;25.43;13.20;;;;;;;1.41;55.20;101894.66;4942263;28;96920;-47
2022/03/03 07:40:11;;;;;;;28.53;14.43;;;;;;;1.31;54.61;101903.66;4953954;28;111563;-46
2022/03/03 07:42:37;;;;;;;30.60;15.30;;;;;;;1.19;54.33;101909.53;4947206;28;96734;-47
2022/03/03 07:45:04;;;;;;;26.57;13.77;;;;;;;1.12;54.88;101917.69;4944547;28;98448;-47
2022/03/03 07:47:29;;;;;;;27.00;14.00;;;;;;;1.16;55.12;101910.31;4942688;28;96849;-48
2022/03/03 07:49:56;;;;;;;25.97;13.13;;;;;;;1.25;54.92;101921.50;4943453;28;96868;-48
2022/03/03 07:52:23;;;;;;;30.53;14.50;;;;;;;1.33;55.05;101923.75;4943643;28;98566;-48
2022/03/03 07:54:49;;;;;;;29.30;13.97;;;;;;;1.40;54.99;101921.00;4938328;28;96916;-46
2022/03/03 07:57:17;;;;;;;26.87;12.90;;;;;;;1.44;54.83;101935.31;4940871;28;117497;-47
2022/03/03 07:59:48;;;;;;;26.60;12.70;;;;;;;1.47;55.16;101945.38;4942193;28;96762;-47
2022/03/03 08:02:21;;;;;;;27.20;12.80;;;;;;;1.42;55.65;101950.44;4938902;28;97100;-47
2022/03/03 08:04:49;;;;;;;25.23;13.33;;;;;;;1.43;55.55;101947.34;4931275;28;96822;-47
2022/03/03 08:07:16;;;;;;;27.80;14.37;;;;;;;1.48;56.18;101955.06;4943729;28;96712;-50
2022/03/03 08:09:43;;;;;;;31.30;15.27;;;;;;;1.51;56.21;101962.38;4944510;28;96815;-48
2022/03/03 08:12:11;;;;;;;27.80;13.70;;;;;;;1.57;56.05;101965.44;4941759;28;97575;-48
2022/03/03 08:14:37;;;;;;;26.20;13.97;;;;;;;1.65;55.96;101958.78;4944463;28;97236;-48
2022/03/03 08:17:03;;;;;;;27.70;13.07;;;;;;;1.77;55.81;101965.69;4941602;28;96889;-47
2022/03/03 08:19:30;;;;;;;30.07;12.43;;;;;;;1.91;55.77;101962.84;4938313;28;97280;-47
2022/03/03 08:21:55;;;;;;;29.83;13.03;;;;;;;2.02;56.46;101967.03;4940394;28;99176;-48
2022/03/03 08:24:21;;;;;;;27.97;13.57;;;;;;;2.10;56.30;101963.06;4942191;28;97142;-47
2022/03/03 08:26:46;;;;;;;35.30;15.00;;;;;;;2.25;56.75;101952.84;4938693;28;97160;-47
2022/03/03 08:29:12;;;;;;;28.77;15.10;;;;;;;2.41;56.00;101953.06;4943607;28;96770;-50
2022/03/03 08:31:45;;;;;;;31.30;14.80;;;;;;;2.57;55.96;101947.84;4937608;28;100141;-48
2022/03/03 08:34:33;;;;;;;28.17;12.60;;;;;;;2.74;57.18;101949.59;4941963;28;100730;-48
2022/03/03 08:37:00;;;;;;;31.67;15.00;;;;;;;2.80;56.36;101958.81;4940791;28;97368;-47
2022/03/03 08:39:28;;;;;;;32.10;16.50;;;;;;;2.88;56.67;101970.41;4940035;28;96986;-48
2022/03/03 08:42:00;;;;;;;31.90;15.97;;;;;;;3.02;56.28;101943.78;4941020;28;97087;-48
2022/03/03 08:44:34;;;;;;;28.97;14.63;;;;;;;3.17;56.20;101943.63;4940151;28;98321;-48
2022/03/03 08:47:03;;;;;;;26.50;14.00;;;;;;;3.34;55.92;101939.88;4943919;28;96831;-48
2022/03/03 08:49:39;;;;;;;30.30;16.13;;;;;;;3.43;56.60;101949.03;4938489;28;97365;-48
2022/03/03 08:52:06;;;;;;;34.40;17.63;;;;;;;3.51;55.95;101960.59;4940038;28;96873;-48
2022/03/03 08:54:31;;;;;;;34.80;16.63;;;;;;;3.62;55.86;101948.38;4939617;28;97406;-48
2022/03/03 08:56:56;;;;;;;29.70;15.20;;;;;;;3.74;55.98;101944.28;4937277;28;96990;-54
2022/03/03 08:59:21;;;;;;;34.17;16.67;;;;;;;3.91;56.09;101943.22;4941730;28;113112;-48
2022/03/03 09:01:49;;;;;;;31.00;15.63;;;;;;;4.06;55.70;101960.09;4938358;28;128283;-48
2022/03/03 09:04:14;;;;;;;30.37;16.27;;;;;;;4.18;55.70;101954.81;4937286;28;96930;-48
2022/03/03 09:06:40;;;;;;;38.67;19.57;;;;;;;4.31;55.96;101955.75;4940016;28;97497;-48
2022/03/03 09:09:05;;;;;;;34.60;17.20;;;;;;;4.43;55.98;101955.13;4943892;28;96913;-48
2022/03/03 09:11:30;;;;;;;36.40;17.10;;;;;;;4.53;55.72;101951.44;4941963;28;96859;-48
2022/03/03 09:13:56;;;;;;;35.77;18.30;;;;;;;4.65;55.62;101950.06;4943522;28;97276;-48
2022/03/03 09:16:21;;;;;;;38.50;18.30;;;;;;;4.75;55.72;101951.03;4940518;28;96915;-47
2022/03/03 09:18:47;;;;;;;34.50;18.47;;;;;;;4.91;55.66;101954.59;4939387;28;96928;-50
2022/03/03 09:21:14;;;;;;;35.33;18.43;;;;;;;5.06;55.71;101957.78;4939778;28;96848;-46
2022/03/03 09:23:40;;;;;;;34.00;17.97;;;;;;;5.25;55.47;101951.50;4937219;28;97047;-46
2022/03/03 09:26:05;;;;;;;31.60;17.27;;;;;;;5.48;55.56;101945.94;4943587;28;96911;-49
2022/03/03 09:28:30;;;;;;;33.33;16.97;;;;;;;5.68;55.23;101954.78;4941986;28;96987;-48
2022/03/03 09:30:56;;;;;;;34.77;18.17;;;;;;;5.82;55.39;101949.00;4941353;28;98620;-48
2022/03/03 09:33:23;;;;;;;37.10;19.67;;;;;;;6.01;54.97;101950.88;4940886;28;101560;-48
2022/03/03 09:35:49;;;;;;;33.20;18.43;;;;;;;6.21;55.03;101944.53;4938224;28;97438;-48
2022/03/03 09:38:14;;;;;;;41.60;21.30;;;;;;;6.27;54.71;101943.56;4942360;28;96901;-48
2022/03/03 09:40:41;;;;;;;37.03;17.90;;;;;;;6.42;54.58;101942.00;4941542;28;97994;-48
2022/03/03 09:43:07;;;;;;;35.60;19.87;;;;;;;6.54;54.80;101948.72;4940374;28;97170;-48
2022/03/03 09:45:34;;;;;;;28.13;16.20;;;;;;;6.72;54.60;101940.78;4937060;28;97131;-49
2022/03/03 09:48:03;;;;;;;33.70;18.03;;;;;;;6.87;54.34;101947.38;4942765;28;97027;-48
2022/03/03 09:50:29;;;;;;;34.90;18.70;;;;;;;6.99;54.29;101946.63;4941159;28;97283;-49
2022/03/03 09:52:55;;;;;;;34.50;18.40;;;;;;;7.14;53.89;101952.47;4939726;28;97234;-48
2022/03/03 09:55:21;;;;;;;39.53;20.23;;;;;;;7.17;53.23;101946.09;4939520;28;96779;-48
2022/03/03 09:57:48;;;;;;;40.77;20.10;;;;;;;7.27;53.56;101940.28;4941887;28;96775;-48
2022/03/03 10:00:14;;;;;;;36.00;17.67;;;;;;;7.36;53.75;101943.16;4943800;28;96764;-49
2022/03/03 10:03:09;;;;;;;30.90;17.30;;;;;;;7.53;53.53;101936.34;4939659;28;97248;-47
2022/03/03 10:05:47;;;;;;;33.27;18.67;;;;;;;7.58;52.86;101944.00;4941164;28;96901;-48
2022/03/03 10:08:14;;;;;;;35.50;20.33;;;;;;;7.64;53.01;101943.47;4940648;28;97046;-49
2022/03/03 10:10:42;;;;;;;33.30;20.00;;;;;;;7.62;52.90;101949.41;4941396;28;98631;-47
2022/03/03 10:13:08;;;;;;;40.33;21.73;;;;;;;7.68;53.09;101942.16;4935526;28;96810;-49
2022/03/03 10:15:35;;;;;;;32.90;18.90;;;;;;;7.76;53.02;101946.19;4943437;28;97712;-49
2022/03/03 10:18:12;;;;;;;37.43;21.50;;;;;;;7.87;52.99;101934.88;4935357;28;98133;-49
2022/03/03 10:20:47;;;;;;;36.87;21.63;;;;;;;7.94;52.43;101937.38;4939343;28;100540;-48
2022/03/03 10:23:12;;;;;;;32.87;19.40;;;;;;;8.03;52.92;101938.25;4940490;28;100423;-49
2022/03/03 10:25:42;;;;;;;34.40;19.03;;;;;;;8.11;52.89;101936.78;4940325;28;96902;-49
2022/03/03 10:28:18;;;;;;;35.47;20.43;;;;;;;8.16;52.60;101938.19;4941563;28;97299;-49
2022/03/03 10:30:55;;;;;;;32.67;20.50;;;;;;;8.19;51.66;101949.03;4937893;28;101679;-49
2022/03/03 10:33:25;;;;;;;39.17;21.73;;;;;;;8.13;52.44;101939.06;4942728;28;103314;-50
2022/03/03 10:36:21;;;;;;;38.80;19.97;;;;;;;8.22;51.96;101942.66;4936653;28;96976;-49
2022/03/03 10:38:58;;;;;;;31.97;18.90;;;;;;;8.26;52.08;101931.59;4939930;28;97042;-49
2022/03/03 10:41:40;;;;;;;31.40;18.20;;;;;;;8.30;51.89;101926.75;4940912;28;100545;-49
2022/03/03 10:44:15;;;;;;;31.40;18.47;;;;;;;8.32;51.57;101927.84;4939368;28;100260;-49
2022/03/03 10:47:01;;;;;;;29.20;18.03;;;;;;;8.31;50.08;101939.25;4939990;28;96745;-49
2022/03/03 10:49:27;;;;;;;30.00;17.13;;;;;;;8.41;51.81;101932.63;4937520;28;96893;-49
2022/03/03 10:51:52;;;;;;;27.43;15.60;;;;;;;8.51;51.68;101928.75;4940838;28;97615;-49
2022/03/03 10:54:18;;;;;;;30.73;18.73;;;;;;;8.52;51.30;101932.28;4938641;28;104583;-48
2022/03/03 10:56:47;;;;;;;27.27;15.47;;;;;;;8.57;51.27;101928.94;4939135;28;98221;-48
2022/03/03 10:59:22;;;;;;;26.17;14.80;;;;;;;8.69;50.10;101928.13;4940702;28;96946;-49
2022/03/03 11:01:47;;;;;;;23.60;13.10;;;;;;;8.76;51.18;101933.31;4939521;28;100583;-49
2022/03/03 11:04:23;;;;;;;19.83;13.10;;;;;;;8.81;47.91;101928.03;4937430;28;97134;-49
2022/03/03 11:06:49;;;;;;;17.50;11.17;;;;;;;8.87;50.09;101925.44;4938875;28;97803;-49
2022/03/03 11:09:17;;;;;;;17.87;9.70;;;;;;;8.93;50.03;101929.16;4944876;28;97272;-47
2022/03/03 11:11:43;;;;;;;18.03;10.93;;;;;;;8.95;48.95;101932.97;4943150;28;97941;-49
2022/03/03 11:14:09;;;;;;;15.27;9.60;;;;;;;9.04;49.78;101913.81;4945001;28;97048;-49
2022/03/03 11:16:35;;;;;;;18.17;9.60;;;;;;;9.20;49.37;101912.81;4942133;28;96678;-48
2022/03/03 11:19:00;;;;;;;19.60;10.67;;;;;;;9.28;48.63;101910.56;4941926;28;97483;-48
2022/03/03 11:21:26;;;;;;;15.10;9.43;;;;;;;9.30;48.43;101908.91;4941632;28;122600;-48